sensor_id;sensor_type;location;lat;lon;timestamp;P1;durP1;ratioP1;P2;durP2;ratioP2
21202;SDS011;10759;51.982;9.232;2023-11-19T00:01:01;2.10;;;2.00;;
21202;SDS011;10759;51.982;9.232;2023-11-19T00:03:32;3.42;;;2.95;;
21202;SDS011;10759;51.982;9.232;2023-11-19T00:06:01;1.63;;;1.53;;
21202;SDS011;10759;51.982;9.232;2023-11-19T00:08:32;1.55;;;1.45;;
21202;SDS011;10759;51.982;9.232;2023-11-19T00:11:00;1.60;;;1.50;;
21202;SDS011;10759;51.982;9.232;2023-11-19T00:13:29;1.73;;;1.60;;
21202;SDS011;10759;51.982;9.232;2023-11-19T00:15:57;1.95;;;1.33;;
21202;SDS011;10759;51.982;9.232;2023-11-19T00:18:25;1.20;;;1.20;;
21202;SDS011;10759;51.982;9.232;2023-11-19T00:20:54;1.42;;;1.33;;
21202;SDS011;10759;51.982;9.232;2023-11-19T00:23:22;1.50;;;1.40;;
21202;SDS011;10759;51.982;9.232;2023-11-19T00:25:52;1.55;;;1.45;;
21202;SDS011;10759;51.982;9.232;2023-11-19T00:28:21;1.83;;;1.73;;
21202;SDS011;10759;51.982;9.232;2023-11-19T00:30:50;1.53;;;1.50;;
21202;SDS011;10759;51.982;9.232;2023-11-19T00:33:19;1.80;;;1.70;;
21202;SDS011;10759;51.982;9.232;2023-11-19T00:35:47;1.80;;;1.70;;
21202;SDS011;10759;51.982;9.232;2023-11-19T00:38:16;1.90;;;1.80;;
21202;SDS011;10759;51.982;9.232;2023-11-19T00:40:44;1.88;;;1.60;;
21202;SDS011;10759;51.982;9.232;2023-11-19T00:43:14;2.58;;;1.83;;
21202;SDS011;10759;51.982;9.232;2023-11-19T00:45:42;5.43;;;5.03;;
21202;SDS011;10759;51.982;9.232;2023-11-19T00:48:10;3.50;;;2.72;;
21202;SDS011;10759;51.982;9.232;2023-11-19T00:50:39;2.70;;;2.50;;
21202;SDS011;10759;51.982;9.232;2023-11-19T00:53:10;6.55;;;5.82;;
21202;SDS011;10759;51.982;9.232;2023-11-19T00:55:38;13.93;;;11.98;;
21202;SDS011;10759;51.982;9.232;2023-11-19T00:58:09;9.60;;;8.60;;
21202;SDS011;10759;51.982;9.232;2023-11-19T01:00:39;9.60;;;8.60;;
21202;SDS011;10759;51.982;9.232;2023-11-19T01:03:07;8.05;;;7.35;;
21202;SDS011;10759;51.982;9.232;2023-11-19T01:05:35;10.70;;;9.80;;
21202;SDS011;10759;51.982;9.232;2023-11-19T01:08:04;8.30;;;7.55;;
21202;SDS011;10759;51.982;9.232;2023-11-19T01:10:32;1.70;;;1.60;;
21202;SDS011;10759;51.982;9.232;2023-11-19T01:13:01;2.10;;;1.55;;
21202;SDS011;10759;51.982;9.232;2023-11-19T01:15:32;1.10;;;1.10;;
21202;SDS011;10759;51.982;9.232;2023-11-19T01:18:02;2.17;;;1.52;;
21202;SDS011;10759;51.982;9.232;2023-11-19T01:20:31;2.13;;;1.48;;
21202;SDS011;10759;51.982;9.232;2023-11-19T01:23:00;1.30;;;1.30;;
21202;SDS011;10759;51.982;9.232;2023-11-19T01:25:28;1.58;;;1.48;;
21202;SDS011;10759;51.982;9.232;2023-11-19T01:27:57;1.50;;;1.40;;
21202;SDS011;10759;51.982;9.232;2023-11-19T01:30:25;1.85;;;1.75;;
21202;SDS011;10759;51.982;9.232;2023-11-19T01:32:53;1.75;;;1.48;;
21202;SDS011;10759;51.982;9.232;2023-11-19T01:35:23;4.63;;;1.80;;
21202;SDS011;10759;51.982;9.232;2023-11-19T01:37:53;2.15;;;1.98;;
21202;SDS011;10759;51.982;9.232;2023-11-19T01:40:22;1.27;;;1.27;;
21202;SDS011;10759;51.982;9.232;2023-11-19T01:42:50;1.33;;;1.00;;
21202;SDS011;10759;51.982;9.232;2023-11-19T01:45:22;0.90;;;0.90;;
21202;SDS011;10759;51.982;9.232;2023-11-19T01:47:56;1.42;;;1.33;;
21202;SDS011;10759;51.982;9.232;2023-11-19T01:50:26;0.80;;;0.80;;
21202;SDS011;10759;51.982;9.232;2023-11-19T01:52:55;1.52;;;1.30;;
21202;SDS011;10759;51.982;9.232;2023-11-19T01:55:26;1.23;;;1.13;;
21202;SDS011;10759;51.982;9.232;2023-11-19T01:57:55;0.98;;;0.98;;
21202;SDS011;10759;51.982;9.232;2023-11-19T02:00:29;0.93;;;0.93;;
21202;SDS011;10759;51.982;9.232;2023-11-19T02:03:00;0.88;;;0.70;;
21202;SDS011;10759;51.982;9.232;2023-11-19T02:05:31;0.80;;;0.80;;
21202;SDS011;10759;51.982;9.232;2023-11-19T02:10:29;0.88;;;0.88;;
21202;SDS011;10759;51.982;9.232;2023-11-19T02:12:59;1.23;;;0.70;;
21202;SDS011;10759;51.982;9.232;2023-11-19T02:15:31;0.80;;;0.80;;
21202;SDS011;10759;51.982;9.232;2023-11-19T02:18:23;0.90;;;0.90;;
21202;SDS011;10759;51.982;9.232;2023-11-19T02:20:56;0.93;;;0.93;;
21202;SDS011;10759;51.982;9.232;2023-11-19T02:23:26;0.80;;;0.80;;
21202;SDS011;10759;51.982;9.232;2023-11-19T02:26:06;1.03;;;1.00;;
21202;SDS011;10759;51.982;9.232;2023-11-19T02:28:44;1.00;;;1.00;;
21202;SDS011;10759;51.982;9.232;2023-11-19T02:31:12;2.50;;;2.20;;
21202;SDS011;10759;51.982;9.232;2023-11-19T02:33:41;1.70;;;1.60;;
21202;SDS011;10759;51.982;9.232;2023-11-19T02:36:09;2.95;;;1.70;;
21202;SDS011;10759;51.982;9.232;2023-11-19T02:38:38;1.65;;;1.55;;
21202;SDS011;10759;51.982;9.232;2023-11-19T02:41:06;1.48;;;1.38;;
21202;SDS011;10759;51.982;9.232;2023-11-19T02:43:36;2.90;;;2.70;;
21202;SDS011;10759;51.982;9.232;2023-11-19T02:46:06;1.77;;;1.45;;
21202;SDS011;10759;51.982;9.232;2023-11-19T02:48:38;2.05;;;1.88;;
21202;SDS011;10759;51.982;9.232;2023-11-19T02:51:06;2.00;;;1.90;;
21202;SDS011;10759;51.982;9.232;2023-11-19T02:53:36;1.95;;;1.85;;
21202;SDS011;10759;51.982;9.232;2023-11-19T02:56:07;1.77;;;1.67;;
21202;SDS011;10759;51.982;9.232;2023-11-19T02:58:46;1.70;;;1.60;;
21202;SDS011;10759;51.982;9.232;2023-11-19T03:01:22;2.00;;;1.90;;
21202;SDS011;10759;51.982;9.232;2023-11-19T03:03:58;1.90;;;1.80;;
21202;SDS011;10759;51.982;9.232;2023-11-19T03:06:29;1.95;;;1.85;;
21202;SDS011;10759;51.982;9.232;2023-11-19T03:08:57;1.77;;;1.67;;
21202;SDS011;10759;51.982;9.232;2023-11-19T03:11:27;2.65;;;2.00;;
21202;SDS011;10759;51.982;9.232;2023-11-19T03:13:56;1.67;;;1.45;;
21202;SDS011;10759;51.982;9.232;2023-11-19T03:16:25;1.73;;;1.63;;
21202;SDS011;10759;51.982;9.232;2023-11-19T03:18:54;1.73;;;1.63;;
21202;SDS011;10759;51.982;9.232;2023-11-19T03:21:26;1.65;;;1.55;;
21202;SDS011;10759;51.982;9.232;2023-11-19T03:23:56;1.73;;;1.63;;
21202;SDS011;10759;51.982;9.232;2023-11-19T03:28:55;1.90;;;1.80;;
21202;SDS011;10759;51.982;9.232;2023-11-19T03:31:23;1.48;;;1.38;;
21202;SDS011;10759;51.982;9.232;2023-11-19T03:33:53;2.70;;;2.50;;
21202;SDS011;10759;51.982;9.232;2023-11-19T03:36:25;2.90;;;2.70;;
21202;SDS011;10759;51.982;9.232;2023-11-19T03:38:53;4.00;;;3.70;;
21202;SDS011;10759;51.982;9.232;2023-11-19T03:41:21;4.13;;;3.83;;
21202;SDS011;10759;51.982;9.232;2023-11-19T03:43:49;5.03;;;4.63;;
21202;SDS011;10759;51.982;9.232;2023-11-19T03:46:17;4.55;;;4.25;;
21202;SDS011;10759;51.982;9.232;2023-11-19T03:48:47;5.22;;;4.82;;
21202;SDS011;10759;51.982;9.232;2023-11-19T03:51:18;5.80;;;5.40;;
21202;SDS011;10759;51.982;9.232;2023-11-19T03:53:46;6.20;;;5.60;;
21202;SDS011;10759;51.982;9.232;2023-11-19T03:56:14;7.00;;;6.28;;
21202;SDS011;10759;51.982;9.232;2023-11-19T03:58:43;6.15;;;5.75;;
21202;SDS011;10759;51.982;9.232;2023-11-19T04:01:11;6.47;;;5.88;;
21202;SDS011;10759;51.982;9.232;2023-11-19T04:03:41;5.97;;;5.55;;
21202;SDS011;10759;51.982;9.232;2023-11-19T04:06:12;6.47;;;6.00;;
21202;SDS011;10759;51.982;9.232;2023-11-19T04:08:42;8.10;;;7.35;;
21202;SDS011;10759;51.982;9.232;2023-11-19T04:13:39;7.97;;;7.38;;
21202;SDS011;10759;51.982;9.232;2023-11-19T04:16:08;9.13;;;8.18;;
21202;SDS011;10759;51.982;9.232;2023-11-19T04:18:37;8.90;;;8.10;;
21202;SDS011;10759;51.982;9.232;2023-11-19T04:21:06;8.63;;;7.72;;
21202;SDS011;10759;51.982;9.232;2023-11-19T04:23:34;10.38;;;8.23;;
21202;SDS011;10759;51.982;9.232;2023-11-19T04:26:04;7.72;;;7.13;;
21202;SDS011;10759;51.982;9.232;2023-11-19T04:28:36;7.38;;;6.65;;
21202;SDS011;10759;51.982;9.232;2023-11-19T04:31:04;8.75;;;8.15;;
21202;SDS011;10759;51.982;9.232;2023-11-19T04:33:33;8.13;;;7.43;;
21202;SDS011;10759;51.982;9.232;2023-11-19T04:36:01;9.27;;;8.07;;
21202;SDS011;10759;51.982;9.232;2023-11-19T04:38:30;9.95;;;7.28;;
21202;SDS011;10759;51.982;9.232;2023-11-19T04:40:58;9.32;;;8.55;;
21202;SDS011;10759;51.982;9.232;2023-11-19T04:43:28;9.05;;;7.20;;
21202;SDS011;10759;51.982;9.232;2023-11-19T04:45:56;7.28;;;6.65;;
21202;SDS011;10759;51.982;9.232;2023-11-19T04:48:25;9.30;;;6.88;;
21202;SDS011;10759;51.982;9.232;2023-11-19T04:50:53;12.32;;;8.40;;
21202;SDS011;10759;51.982;9.232;2023-11-19T04:53:21;9.68;;;7.10;;
21202;SDS011;10759;51.982;9.232;2023-11-19T04:55:50;9.65;;;7.07;;
21202;SDS011;10759;51.982;9.232;2023-11-19T04:58:18;10.73;;;7.97;;
21202;SDS011;10759;51.982;9.232;2023-11-19T05:00:48;13.27;;;8.35;;
21202;SDS011;10759;51.982;9.232;2023-11-19T05:03:16;14.27;;;7.80;;
21202;SDS011;10759;51.982;9.232;2023-11-19T05:05:44;16.23;;;7.97;;
21202;SDS011;10759;51.982;9.232;2023-11-19T05:08:12;10.75;;;6.93;;
21202;SDS011;10759;51.982;9.232;2023-11-19T05:10:41;13.38;;;7.05;;
21202;SDS011;10759;51.982;9.232;2023-11-19T05:13:09;14.93;;;6.57;;
21202;SDS011;10759;51.982;9.232;2023-11-19T05:15:37;10.30;;;5.93;;
21202;SDS011;10759;51.982;9.232;2023-11-19T05:18:07;9.45;;;5.60;;
21202;SDS011;10759;51.982;9.232;2023-11-19T05:20:35;12.45;;;4.88;;
21202;SDS011;10759;51.982;9.232;2023-11-19T05:23:04;12.57;;;4.97;;
21202;SDS011;10759;51.982;9.232;2023-11-19T05:25:32;10.15;;;4.90;;
21202;SDS011;10759;51.982;9.232;2023-11-19T05:28:01;13.88;;;4.97;;
21202;SDS011;10759;51.982;9.232;2023-11-19T05:30:29;10.77;;;4.93;;
21202;SDS011;10759;51.982;9.232;2023-11-19T05:32:57;8.52;;;4.13;;
21202;SDS011;10759;51.982;9.232;2023-11-19T05:35:29;11.00;;;4.22;;
21202;SDS011;10759;51.982;9.232;2023-11-19T05:37:57;11.57;;;4.22;;
21202;SDS011;10759;51.982;9.232;2023-11-19T05:40:25;13.43;;;4.32;;
21202;SDS011;10759;51.982;9.232;2023-11-19T05:42:53;13.07;;;4.80;;
21202;SDS011;10759;51.982;9.232;2023-11-19T05:45:22;10.55;;;4.07;;
21202;SDS011;10759;51.982;9.232;2023-11-19T05:47:51;9.77;;;4.50;;
21202;SDS011;10759;51.982;9.232;2023-11-19T05:50:19;7.03;;;4.57;;
21202;SDS011;10759;51.982;9.232;2023-11-19T05:52:49;9.52;;;3.95;;
21202;SDS011;10759;51.982;9.232;2023-11-19T05:55:19;8.23;;;4.82;;
21202;SDS011;10759;51.982;9.232;2023-11-19T06:00:18;10.85;;;5.00;;
21202;SDS011;10759;51.982;9.232;2023-11-19T06:02:47;12.45;;;5.00;;
21202;SDS011;10759;51.982;9.232;2023-11-19T06:05:15;13.43;;;6.22;;
21202;SDS011;10759;51.982;9.232;2023-11-19T06:07:43;14.00;;;5.65;;
21202;SDS011;10759;51.982;9.232;2023-11-19T06:10:14;14.25;;;5.55;;
21202;SDS011;10759;51.982;9.232;2023-11-19T06:15:13;17.98;;;7.13;;
21202;SDS011;10759;51.982;9.232;2023-11-19T06:17:41;12.45;;;6.35;;
21202;SDS011;10759;51.982;9.232;2023-11-19T06:20:10;14.65;;;6.53;;
21202;SDS011;10759;51.982;9.232;2023-11-19T06:22:38;15.60;;;6.32;;
21202;SDS011;10759;51.982;9.232;2023-11-19T06:25:07;12.07;;;6.70;;
21202;SDS011;10759;51.982;9.232;2023-11-19T06:27:37;9.10;;;6.43;;
21202;SDS011;10759;51.982;9.232;2023-11-19T06:30:06;16.13;;;6.93;;
21202;SDS011;10759;51.982;9.232;2023-11-19T06:32:35;11.20;;;6.07;;
21202;SDS011;10759;51.982;9.232;2023-11-19T06:35:04;14.23;;;5.57;;
21202;SDS011;10759;51.982;9.232;2023-11-19T06:37:32;13.52;;;5.75;;
21202;SDS011;10759;51.982;9.232;2023-11-19T06:40:01;12.68;;;5.80;;
21202;SDS011;10759;51.982;9.232;2023-11-19T06:42:31;11.98;;;5.65;;
21202;SDS011;10759;51.982;9.232;2023-11-19T06:45:01;18.23;;;6.28;;
21202;SDS011;10759;51.982;9.232;2023-11-19T06:47:31;17.08;;;6.85;;
21202;SDS011;10759;51.982;9.232;2023-11-19T06:49:59;17.10;;;6.93;;
21202;SDS011;10759;51.982;9.232;2023-11-19T06:52:27;18.65;;;5.90;;
21202;SDS011;10759;51.982;9.232;2023-11-19T06:54:55;14.98;;;5.68;;
21202;SDS011;10759;51.982;9.232;2023-11-19T06:57:34;14.45;;;5.35;;
21202;SDS011;10759;51.982;9.232;2023-11-19T07:00:04;21.50;;;6.30;;
21202;SDS011;10759;51.982;9.232;2023-11-19T07:02:35;19.73;;;6.78;;
21202;SDS011;10759;51.982;9.232;2023-11-19T07:05:03;19.85;;;6.15;;
21202;SDS011;10759;51.982;9.232;2023-11-19T07:07:33;17.13;;;5.13;;
21202;SDS011;10759;51.982;9.232;2023-11-19T07:10:02;19.50;;;5.63;;
21202;SDS011;10759;51.982;9.232;2023-11-19T07:12:32;14.18;;;5.60;;
21202;SDS011;10759;51.982;9.232;2023-11-19T07:15:04;17.25;;;5.45;;
21202;SDS011;10759;51.982;9.232;2023-11-19T07:17:32;23.27;;;5.93;;
21202;SDS011;10759;51.982;9.232;2023-11-19T07:20:02;19.50;;;5.55;;
21202;SDS011;10759;51.982;9.232;2023-11-19T07:22:32;17.80;;;5.00;;
21202;SDS011;10759;51.982;9.232;2023-11-19T07:25:00;20.70;;;7.25;;
21202;SDS011;10759;51.982;9.232;2023-11-19T07:27:29;18.95;;;5.97;;
21202;SDS011;10759;51.982;9.232;2023-11-19T07:29:57;16.85;;;5.68;;
21202;SDS011;10759;51.982;9.232;2023-11-19T07:32:27;18.65;;;5.65;;
21202;SDS011;10759;51.982;9.232;2023-11-19T07:34:55;17.00;;;5.38;;
21202;SDS011;10759;51.982;9.232;2023-11-19T07:37:23;26.00;;;5.95;;
21202;SDS011;10759;51.982;9.232;2023-11-19T07:39:51;21.55;;;7.43;;
21202;SDS011;10759;51.982;9.232;2023-11-19T07:42:20;20.35;;;5.55;;
21202;SDS011;10759;51.982;9.232;2023-11-19T07:44:48;19.20;;;6.28;;
21202;SDS011;10759;51.982;9.232;2023-11-19T07:47:17;16.73;;;5.65;;
21202;SDS011;10759;51.982;9.232;2023-11-19T07:49:47;19.38;;;6.63;;
21202;SDS011;10759;51.982;9.232;2023-11-19T07:52:15;19.50;;;6.93;;
21202;SDS011;10759;51.982;9.232;2023-11-19T07:54:46;22.10;;;6.43;;
21202;SDS011;10759;51.982;9.232;2023-11-19T07:57:14;22.05;;;5.70;;
21202;SDS011;10759;51.982;9.232;2023-11-19T07:59:42;23.83;;;5.55;;
21202;SDS011;10759;51.982;9.232;2023-11-19T08:02:11;22.33;;;7.03;;
21202;SDS011;10759;51.982;9.232;2023-11-19T08:04:39;24.70;;;6.00;;
21202;SDS011;10759;51.982;9.232;2023-11-19T08:07:13;23.38;;;5.55;;
21202;SDS011;10759;51.982;9.232;2023-11-19T08:09:41;16.70;;;5.85;;
21202;SDS011;10759;51.982;9.232;2023-11-19T08:12:13;20.65;;;5.88;;
21202;SDS011;10759;51.982;9.232;2023-11-19T08:14:44;21.40;;;5.38;;
21202;SDS011;10759;51.982;9.232;2023-11-19T08:17:12;19.08;;;5.50;;
21202;SDS011;10759;51.982;9.232;2023-11-19T08:19:40;17.48;;;6.32;;
21202;SDS011;10759;51.982;9.232;2023-11-19T08:22:09;27.65;;;6.15;;
21202;SDS011;10759;51.982;9.232;2023-11-19T08:24:39;18.98;;;5.97;;
21202;SDS011;10759;51.982;9.232;2023-11-19T08:27:07;22.05;;;5.35;;
21202;SDS011;10759;51.982;9.232;2023-11-19T08:29:35;24.27;;;5.57;;
21202;SDS011;10759;51.982;9.232;2023-11-19T08:32:03;16.23;;;5.70;;
21202;SDS011;10759;51.982;9.232;2023-11-19T08:34:33;19.38;;;6.63;;
21202;SDS011;10759;51.982;9.232;2023-11-19T08:37:01;24.13;;;6.78;;
21202;SDS011;10759;51.982;9.232;2023-11-19T08:39:29;26.67;;;7.28;;
21202;SDS011;10759;51.982;9.232;2023-11-19T08:41:59;20.02;;;6.00;;
21202;SDS011;10759;51.982;9.232;2023-11-19T08:44:27;16.77;;;5.70;;
21202;SDS011;10759;51.982;9.232;2023-11-19T08:46:55;22.35;;;6.22;;
21202;SDS011;10759;51.982;9.232;2023-11-19T08:49:24;22.63;;;7.18;;
21202;SDS011;10759;51.982;9.232;2023-11-19T08:51:52;20.75;;;6.75;;
21202;SDS011;10759;51.982;9.232;2023-11-19T08:54:20;20.52;;;5.78;;
21202;SDS011;10759;51.982;9.232;2023-11-19T08:56:49;21.52;;;6.05;;
21202;SDS011;10759;51.982;9.232;2023-11-19T08:59:18;22.73;;;6.75;;
21202;SDS011;10759;51.982;9.232;2023-11-19T09:01:46;21.37;;;5.90;;
21202;SDS011;10759;51.982;9.232;2023-11-19T09:04:15;18.45;;;6.18;;
21202;SDS011;10759;51.982;9.232;2023-11-19T09:06:44;25.02;;;6.38;;
21202;SDS011;10759;51.982;9.232;2023-11-19T09:09:12;17.02;;;5.88;;
21202;SDS011;10759;51.982;9.232;2023-11-19T09:11:40;22.15;;;5.57;;
21202;SDS011;10759;51.982;9.232;2023-11-19T09:14:09;17.63;;;6.07;;
21202;SDS011;10759;51.982;9.232;2023-11-19T09:16:38;21.50;;;6.70;;
21202;SDS011;10759;51.982;9.232;2023-11-19T09:19:06;31.77;;;6.95;;
21202;SDS011;10759;51.982;9.232;2023-11-19T09:21:34;21.67;;;6.18;;
21202;SDS011;10759;51.982;9.232;2023-11-19T09:24:05;22.30;;;6.90;;
21202;SDS011;10759;51.982;9.232;2023-11-19T09:26:34;27.05;;;6.45;;
21202;SDS011;10759;51.982;9.232;2023-11-19T09:29:03;24.50;;;6.40;;
21202;SDS011;10759;51.982;9.232;2023-11-19T09:31:31;24.50;;;5.95;;
21202;SDS011;10759;51.982;9.232;2023-11-19T09:34:00;23.60;;;6.68;;
21202;SDS011;10759;51.982;9.232;2023-11-19T09:36:29;16.58;;;5.25;;
21202;SDS011;10759;51.982;9.232;2023-11-19T09:38:57;20.95;;;5.63;;
21202;SDS011;10759;51.982;9.232;2023-11-19T09:41:27;18.37;;;5.17;;
21202;SDS011;10759;51.982;9.232;2023-11-19T09:43:55;25.10;;;6.47;;
21202;SDS011;10759;51.982;9.232;2023-11-19T09:46:24;22.02;;;5.93;;
21202;SDS011;10759;51.982;9.232;2023-11-19T09:48:54;26.80;;;6.65;;
21202;SDS011;10759;51.982;9.232;2023-11-19T09:51:25;21.65;;;7.47;;
21202;SDS011;10759;51.982;9.232;2023-11-19T09:53:53;20.85;;;6.80;;
21202;SDS011;10759;51.982;9.232;2023-11-19T09:56:21;18.48;;;6.18;;
21202;SDS011;10759;51.982;9.232;2023-11-19T09:58:51;21.40;;;6.70;;
21202;SDS011;10759;51.982;9.232;2023-11-19T10:01:20;18.23;;;6.47;;
21202;SDS011;10759;51.982;9.232;2023-11-19T10:03:55;17.98;;;5.95;;
21202;SDS011;10759;51.982;9.232;2023-11-19T10:06:25;19.02;;;6.40;;
21202;SDS011;10759;51.982;9.232;2023-11-19T10:08:54;30.55;;;7.28;;
21202;SDS011;10759;51.982;9.232;2023-11-19T10:11:23;18.95;;;5.97;;
21202;SDS011;10759;51.982;9.232;2023-11-19T10:13:53;21.10;;;6.32;;
21202;SDS011;10759;51.982;9.232;2023-11-19T10:16:27;18.42;;;5.90;;
21202;SDS011;10759;51.982;9.232;2023-11-19T10:18:57;21.45;;;6.35;;
21202;SDS011;10759;51.982;9.232;2023-11-19T10:21:27;18.45;;;6.10;;
21202;SDS011;10759;51.982;9.232;2023-11-19T10:23:59;25.55;;;7.28;;
21202;SDS011;10759;51.982;9.232;2023-11-19T10:26:27;22.88;;;5.55;;
21202;SDS011;10759;51.982;9.232;2023-11-19T10:28:56;23.17;;;6.50;;
21202;SDS011;10759;51.982;9.232;2023-11-19T10:31:24;27.00;;;6.88;;
21202;SDS011;10759;51.982;9.232;2023-11-19T10:33:53;20.83;;;5.70;;
21202;SDS011;10759;51.982;9.232;2023-11-19T10:36:24;25.85;;;7.35;;
21202;SDS011;10759;51.982;9.232;2023-11-19T10:39:09;20.90;;;5.90;;
21202;SDS011;10759;51.982;9.232;2023-11-19T10:41:37;23.10;;;6.50;;
21202;SDS011;10759;51.982;9.232;2023-11-19T10:44:05;22.50;;;6.55;;
21202;SDS011;10759;51.982;9.232;2023-11-19T10:46:39;20.85;;;6.57;;
21202;SDS011;10759;51.982;9.232;2023-11-19T10:49:07;18.67;;;5.65;;
21202;SDS011;10759;51.982;9.232;2023-11-19T10:51:35;21.02;;;6.57;;
21202;SDS011;10759;51.982;9.232;2023-11-19T10:54:10;23.05;;;5.75;;
21202;SDS011;10759;51.982;9.232;2023-11-19T10:56:40;27.05;;;6.00;;
21202;SDS011;10759;51.982;9.232;2023-11-19T10:59:12;21.27;;;5.70;;
21202;SDS011;10759;51.982;9.232;2023-11-19T11:01:45;27.58;;;6.38;;
21202;SDS011;10759;51.982;9.232;2023-11-19T11:04:23;20.80;;;5.70;;
21202;SDS011;10759;51.982;9.232;2023-11-19T11:06:55;20.92;;;5.97;;
21202;SDS011;10759;51.982;9.232;2023-11-19T11:09:26;18.55;;;5.47;;
21202;SDS011;10759;51.982;9.232;2023-11-19T11:11:55;22.75;;;6.22;;
21202;SDS011;10759;51.982;9.232;2023-11-19T11:14:26;24.48;;;6.88;;
21202;SDS011;10759;51.982;9.232;2023-11-19T11:16:55;27.00;;;7.28;;
21202;SDS011;10759;51.982;9.232;2023-11-19T11:19:26;24.35;;;5.78;;
21202;SDS011;10759;51.982;9.232;2023-11-19T11:21:55;17.10;;;5.90;;
21202;SDS011;10759;51.982;9.232;2023-11-19T11:24:28;29.92;;;6.32;;
21202;SDS011;10759;51.982;9.232;2023-11-19T11:27:25;21.65;;;7.22;;
21202;SDS011;10759;51.982;9.232;2023-11-19T11:30:20;24.45;;;5.78;;
21202;SDS011;10759;51.982;9.232;2023-11-19T11:32:59;20.00;;;7.00;;
21202;SDS011;10759;51.982;9.232;2023-11-19T11:35:39;20.98;;;6.10;;
21202;SDS011;10759;51.982;9.232;2023-11-19T11:38:21;20.23;;;5.05;;
21202;SDS011;10759;51.982;9.232;2023-11-19T11:41:14;16.58;;;5.55;;
21202;SDS011;10759;51.982;9.232;2023-11-19T11:43:45;19.60;;;5.97;;
21202;SDS011;10759;51.982;9.232;2023-11-19T11:49:26;23.15;;;6.03;;
21202;SDS011;10759;51.982;9.232;2023-11-19T11:51:59;25.48;;;6.15;;
21202;SDS011;10759;51.982;9.232;2023-11-19T11:54:33;20.80;;;5.85;;
21202;SDS011;10759;51.982;9.232;2023-11-19T11:57:08;30.25;;;6.88;;
21202;SDS011;10759;51.982;9.232;2023-11-19T11:59:43;24.70;;;6.22;;
21202;SDS011;10759;51.982;9.232;2023-11-19T12:02:14;22.02;;;5.80;;
21202;SDS011;10759;51.982;9.232;2023-11-19T12:07:18;14.40;;;4.72;;
21202;SDS011;10759;51.982;9.232;2023-11-19T12:09:51;21.02;;;7.07;;
21202;SDS011;10759;51.982;9.232;2023-11-19T12:12:22;25.95;;;5.95;;
21202;SDS011;10759;51.982;9.232;2023-11-19T12:15:00;20.08;;;5.90;;
21202;SDS011;10759;51.982;9.232;2023-11-19T12:17:41;24.40;;;6.15;;
21202;SDS011;10759;51.982;9.232;2023-11-19T12:20:18;23.10;;;5.80;;
21202;SDS011;10759;51.982;9.232;2023-11-19T12:22:50;24.83;;;6.10;;
21202;SDS011;10759;51.982;9.232;2023-11-19T12:25:21;20.42;;;6.65;;
21202;SDS011;10759;51.982;9.232;2023-11-19T12:27:50;18.33;;;5.20;;
21202;SDS011;10759;51.982;9.232;2023-11-19T12:30:21;27.25;;;5.90;;
21202;SDS011;10759;51.982;9.232;2023-11-19T12:32:50;21.95;;;6.32;;
21202;SDS011;10759;51.982;9.232;2023-11-19T12:35:20;25.85;;;6.18;;
21202;SDS011;10759;51.982;9.232;2023-11-19T12:37:49;21.25;;;6.80;;
21202;SDS011;10759;51.982;9.232;2023-11-19T12:40:19;27.60;;;7.28;;
21202;SDS011;10759;51.982;9.232;2023-11-19T12:47:50;25.08;;;6.45;;
21202;SDS011;10759;51.982;9.232;2023-11-19T12:53:18;21.60;;;5.70;;
21202;SDS011;10759;51.982;9.232;2023-11-19T12:55:46;25.13;;;6.68;;
21202;SDS011;10759;51.982;9.232;2023-11-19T12:58:32;26.13;;;7.03;;
21202;SDS011;10759;51.982;9.232;2023-11-19T13:01:01;26.88;;;6.85;;
21202;SDS011;10759;51.982;9.232;2023-11-19T13:03:32;22.33;;;6.78;;
21202;SDS011;10759;51.982;9.232;2023-11-19T13:06:02;21.63;;;6.80;;
21202;SDS011;10759;51.982;9.232;2023-11-19T13:11:08;13.85;;;4.78;;
21202;SDS011;10759;51.982;9.232;2023-11-19T13:13:54;21.42;;;6.93;;
21202;SDS011;10759;51.982;9.232;2023-11-19T13:16:24;18.83;;;4.90;;
21202;SDS011;10759;51.982;9.232;2023-11-19T13:18:54;17.23;;;5.50;;
21202;SDS011;10759;51.982;9.232;2023-11-19T13:21:24;20.92;;;5.68;;
21202;SDS011;10759;51.982;9.232;2023-11-19T13:23:52;22.60;;;5.63;;
21202;SDS011;10759;51.982;9.232;2023-11-19T13:26:20;24.92;;;6.40;;
21202;SDS011;10759;51.982;9.232;2023-11-19T13:28:50;20.73;;;5.88;;
21202;SDS011;10759;51.982;9.232;2023-11-19T13:31:20;18.75;;;5.28;;
21202;SDS011;10759;51.982;9.232;2023-11-19T13:33:49;24.80;;;6.15;;
21202;SDS011;10759;51.982;9.232;2023-11-19T13:36:18;19.73;;;5.57;;
21202;SDS011;10759;51.982;9.232;2023-11-19T13:38:47;20.60;;;6.30;;
21202;SDS011;10759;51.982;9.232;2023-11-19T13:41:16;24.35;;;6.40;;
21202;SDS011;10759;51.982;9.232;2023-11-19T13:43:43;21.60;;;5.78;;
21202;SDS011;10759;51.982;9.232;2023-11-19T13:46:12;16.73;;;5.68;;
21202;SDS011;10759;51.982;9.232;2023-11-19T13:48:41;17.45;;;5.07;;
21202;SDS011;10759;51.982;9.232;2023-11-19T13:51:10;16.48;;;5.10;;
21202;SDS011;10759;51.982;9.232;2023-11-19T13:53:38;21.10;;;5.30;;
21202;SDS011;10759;51.982;9.232;2023-11-19T13:56:09;20.10;;;5.32;;
21202;SDS011;10759;51.982;9.232;2023-11-19T13:58:37;23.92;;;8.57;;
21202;SDS011;10759;51.982;9.232;2023-11-19T14:01:06;17.95;;;4.80;;
21202;SDS011;10759;51.982;9.232;2023-11-19T14:03:35;18.92;;;5.07;;
21202;SDS011;10759;51.982;9.232;2023-11-19T14:06:05;21.75;;;7.05;;
21202;SDS011;10759;51.982;9.232;2023-11-19T14:08:35;17.88;;;5.43;;
21202;SDS011;10759;51.982;9.232;2023-11-19T14:11:03;17.63;;;5.65;;
21202;SDS011;10759;51.982;9.232;2023-11-19T14:13:31;20.48;;;5.20;;
21202;SDS011;10759;51.982;9.232;2023-11-19T14:16:01;18.03;;;5.73;;
21202;SDS011;10759;51.982;9.232;2023-11-19T14:18:29;18.17;;;4.80;;
21202;SDS011;10759;51.982;9.232;2023-11-19T14:21:01;16.63;;;4.78;;
21202;SDS011;10759;51.982;9.232;2023-11-19T14:23:32;22.25;;;6.28;;
21202;SDS011;10759;51.982;9.232;2023-11-19T14:26:01;11.60;;;4.15;;
21202;SDS011;10759;51.982;9.232;2023-11-19T14:28:29;14.88;;;4.93;;
21202;SDS011;10759;51.982;9.232;2023-11-19T14:30:58;17.00;;;4.68;;
21202;SDS011;10759;51.982;9.232;2023-11-19T14:33:27;16.52;;;5.72;;
21202;SDS011;10759;51.982;9.232;2023-11-19T14:35:56;21.52;;;5.45;;
21202;SDS011;10759;51.982;9.232;2023-11-19T14:38:24;15.07;;;5.85;;
21202;SDS011;10759;51.982;9.232;2023-11-19T14:40:54;18.30;;;4.75;;
21202;SDS011;10759;51.982;9.232;2023-11-19T14:43:22;19.80;;;6.15;;
21202;SDS011;10759;51.982;9.232;2023-11-19T14:45:51;18.40;;;4.88;;
21202;SDS011;10759;51.982;9.232;2023-11-19T14:48:22;18.33;;;5.20;;
21202;SDS011;10759;51.982;9.232;2023-11-19T14:50:50;23.17;;;7.18;;
21202;SDS011;10759;51.982;9.232;2023-11-19T14:53:18;19.65;;;5.68;;
21202;SDS011;10759;51.982;9.232;2023-11-19T14:55:47;21.25;;;5.18;;
21202;SDS011;10759;51.982;9.232;2023-11-19T14:58:17;23.40;;;7.00;;
21202;SDS011;10759;51.982;9.232;2023-11-19T15:00:45;18.50;;;5.68;;
21202;SDS011;10759;51.982;9.232;2023-11-19T15:03:13;17.20;;;5.03;;
21202;SDS011;10759;51.982;9.232;2023-11-19T15:05:43;15.32;;;5.43;;
21202;SDS011;10759;51.982;9.232;2023-11-19T15:08:12;15.32;;;4.85;;
21202;SDS011;10759;51.982;9.232;2023-11-19T15:10:42;20.95;;;4.90;;
21202;SDS011;10759;51.982;9.232;2023-11-19T15:13:11;18.30;;;4.40;;
21202;SDS011;10759;51.982;9.232;2023-11-19T15:15:41;16.85;;;4.45;;
21202;SDS011;10759;51.982;9.232;2023-11-19T15:18:10;14.18;;;4.60;;
21202;SDS011;10759;51.982;9.232;2023-11-19T15:20:38;14.07;;;3.72;;
21202;SDS011;10759;51.982;9.232;2023-11-19T15:23:07;15.90;;;4.45;;